Explorer — DHRP — position and weather

sailwx.info

Track history (hours):
 
Tides and Currents Weather Stations Pressure Air Temp Water Temp Dewpoint Dewpoint Depression Visibility Wind Speed Wind Dir Waves Ship Positions

Explorer

Last reported at 2016-May-09 20:31 UTC. Time now 2016-May-30 03:04 UTC.
Position N 41°20' E 019°09'.
Warning: this ship's position is 20 days out of date.

Length 41 m; draft 3 m.

Type: Pleasure craft. MMSI: 211293610.

Date/timePositionNaut miles runAvg speedWind from/ knotsBaromVisibWave heightAir tempDewpointWater temp
2016-May-09 20:31N 41°20' E 019°09'9 8.7
2016-May-09 19:31N 41°28' E 019°08'9 9.0
2016-May-09 18:29N 41°38' E 019°07'18 9.0
2016-May-09 16:27N 41°56' E 019°05'9 9.3
2016-May-09 15:29N 42°05' E 019°04'7 1.9
2016-May-09 11:33N 42°10' E 018°56'9 8.8
2016-May-09 10:33N 42°14' E 018°46'9 8.9
2016-May-09 09:33N 42°19' E 018°36'9 8.7
2016-May-09 08:33N 42°23' E 018°26'9 8.6
2016-May-09 07:33N 42°28' E 018°16'9 8.4
2016-May-09 06:32N 42°34' E 018°08'  
Track history (hours):
 
Tides and Currents Weather Stations Pressure Air Temp Water Temp Dewpoint Dewpoint Depression Visibility Wind Speed Wind Dir Waves Ship Positions

Explorer

Last reported at 2016-May-09 20:31 UTC. Time now 2016-May-30 03:04 UTC.
Position N 41°20' E 019°09'.
Warning: this ship's position is 20 days out of date.

Length 41 m; draft 3 m.

Type: Pleasure craft. MMSI: 211293610.

Date/timePositionNaut miles runAvg speedWind from/ knotsBaromVisibWave heightAir tempDewpointWater temp
2016-May-09 20:31N 41°20' E 019°09'9 8.7
2016-May-09 19:31N 41°28' E 019°08'9 9.0
2016-May-09 18:29N 41°38' E 019°07'18 9.0
2016-May-09 16:27N 41°56' E 019°05'9 9.3
2016-May-09 15:29N 42°05' E 019°04'7 1.9
2016-May-09 11:33N 42°10' E 018°56'9 8.8
2016-May-09 10:33N 42°14' E 018°46'9 8.9
2016-May-09 09:33N 42°19' E 018°36'9 8.7
2016-May-09 08:33N 42°23' E 018°26'9 8.6
2016-May-09 07:33N 42°28' E 018°16'9 8.4
2016-May-09 06:32N 42°34' E 018°08'  

Dump ship's entire track history